Pays
Station

 

Conditions  météo  pour  Ramona, Ramona Airport  -  Etats-Unis    Etats-Unis

  
13 °C
    
 
 

METAR pour Ramona, Ramona Airport :

KRNM 202253Z 27013G17KT 10SM CLR 13/M06 A3006 RMK AO2 SLP181 T01281061 $

 

Voici le bulletin pour Ramona, Ramona Airport - Etats-Unis.
 
Le bulletin a été fait il y a 13 minutes, à 22:53 UTC .
Le vent soufflait à la vitesse de 6.7 mètres par seconde avec des rafales jusqu'à 8.7 mètres par seconde de Ouest (270°).
 
La température était de 13 °C, avec un point de rosée à -6 °C.
La pression atmosphérique était de 1018 hPa.
L'humidité relative était de 26.1%.
 
Le ciel était clair.
 
La visibilité globale était de 16.1 kilomètres.
 

 
 
 

Pays :   A   B   C   D   E   F   G   H   I   J   K   L   M   N   O   P   Q   R   S   T   U   V   W   Y   Z

 

Partenaires :  Info Météo avec Met'info
Météo Marine avec MeteoMarine.net
Infos Site  |  Infos Légales  |  Crédits  |  Confidentialité
Contactez-nous  |  Ajouter aux favoris
© 2013-2018 METAR - Tous droits réservés